UASP

Details ICAO UASP (PWQ)
Name PAVLODAR
Region Kazakhstan and Kyrgyzstan
Timezone Asia/Almaty (UTC+6.0)
Plans Departing 4
Arriving 11
Stats Elevation 410 ft / 125 m (AMSL)
Location 52.194862° 77.074028°
Runways 1
Magnetic Variation 9.238° E
Sunrise 2017-12-15 02:55:43 UTC / 2017-12-15 08:55:43 Local
Sunset 2017-12-15 10:40:35 UTC / 2017-12-15 16:40:35 Local
Advertisement - Login to hide

Runways

ID Width Length Bearing (true) Bearing (mag) Surface Threshold Offset Overrun Length
03 148 ft / 45 m 8,145 ft / 2,483 m 42.75° 33.51° Concrete 0 ft / 0 m 0 ft / 0 m
21 148 ft / 45 m 8,145 ft / 2,483 m 222.77° 213.53° Concrete 0 ft / 0 m 0 ft / 0 m

Map

Weather


0- 5 10 15 20 25 30 35+ Temperature / ° C

Clouds and Precipitation
Forecast for 2017-12-15 18:00 UTC. Updated an hour ago

Ground ~20,000 ft ~40,000 ft Winds

METAR

UASP 151800Z 13002MPS CAVOK M28/M31 Q1048 R21/450255 NOSIG RMK QFE774/1033

TAF

Not found

Frequencies

Tower 119.80 MHz TWR
Warning: Do not use this data for real-world aviation or navigation. No guarantee of current accuracy is given.